sensor_id;sensor_type;location;lat;lon;timestamp;pressure;altitude;pressure_sealevel;temperature;humidity
21182;BME280;10749;46.296;7.524;2023-02-02T00:01:43;95913.44;;;6.54;47.51
21182;BME280;10749;46.296;7.524;2023-02-02T00:04:15;95914.97;;;6.56;47.44
21182;BME280;10749;46.296;7.524;2023-02-02T00:06:41;95912.03;;;6.49;47.35
21182;BME280;10749;46.296;7.524;2023-02-02T00:09:06;95911.31;;;6.47;47.43
21182;BME280;10749;46.296;7.524;2023-02-02T00:11:31;95904.66;;;6.43;47.15
21182;BME280;10749;46.296;7.524;2023-02-02T00:13:57;95911.13;;;6.39;47.20
21182;BME280;10749;46.296;7.524;2023-02-02T00:18:51;95903.50;;;6.36;47.23
21182;BME280;10749;46.296;7.524;2023-02-02T00:21:16;95906.13;;;6.36;47.21
21182;BME280;10749;46.296;7.524;2023-02-02T00:23:42;95907.66;;;6.39;47.41
21182;BME280;10749;46.296;7.524;2023-02-02T00:26:08;95904.91;;;6.40;47.80
21182;BME280;10749;46.296;7.524;2023-02-02T00:28:34;95904.91;;;6.40;47.51
21182;BME280;10749;46.296;7.524;2023-02-02T00:30:59;95902.56;;;6.37;47.53
21182;BME280;10749;46.296;7.524;2023-02-02T00:33:24;95904.19;;;6.38;47.60
21182;BME280;10749;46.296;7.524;2023-02-02T00:35:51;95902.41;;;6.39;47.40
21182;BME280;10749;46.296;7.524;2023-02-02T00:38:17;95898.94;;;6.38;47.29
21182;BME280;10749;46.296;7.524;2023-02-02T00:40:42;95901.56;;;6.38;47.16
21182;BME280;10749;46.296;7.524;2023-02-02T00:43:07;95903.34;;;6.38;47.15
21182;BME280;10749;46.296;7.524;2023-02-02T00:45:32;95903.34;;;6.38;47.20
21182;BME280;10749;46.296;7.524;2023-02-02T00:47:58;95902.41;;;6.39;47.42
21182;BME280;10749;46.296;7.524;2023-02-02T00:50:23;95897.16;;;6.39;47.55
21182;BME280;10749;46.296;7.524;2023-02-02T00:52:48;95894.41;;;6.40;47.39
21182;BME280;10749;46.296;7.524;2023-02-02T00:55:15;95902.13;;;6.42;47.28
21182;BME280;10749;46.296;7.524;2023-02-02T00:57:40;95909.44;;;6.38;47.00
21182;BME280;10749;46.296;7.524;2023-02-02T01:00:12;95910.44;;;6.37;47.28
21182;BME280;10749;46.296;7.524;2023-02-02T01:02:38;95911.25;;;6.38;47.30
21182;BME280;10749;46.296;7.524;2023-02-02T01:05:04;95910.09;;;6.31;47.31
21182;BME280;10749;46.296;7.524;2023-02-02T01:07:29;95912.03;;;6.29;47.58
21182;BME280;10749;46.296;7.524;2023-02-02T01:09:54;95907.63;;;6.29;47.60
21182;BME280;10749;46.296;7.524;2023-02-02T01:12:20;95911.19;;;6.28;47.40
21182;BME280;10749;46.296;7.524;2023-02-02T01:14:45;95916.69;;;6.25;47.25
21182;BME280;10749;46.296;7.524;2023-02-02T01:17:10;95929.84;;;6.25;47.36
21182;BME280;10749;46.296;7.524;2023-02-02T01:19:36;95920.53;;;6.21;47.21
21182;BME280;10749;46.296;7.524;2023-02-02T01:22:01;95919.56;;;6.22;47.34
21182;BME280;10749;46.296;7.524;2023-02-02T01:24:27;95923.78;;;6.25;47.45
21182;BME280;10749;46.296;7.524;2023-02-02T01:26:52;95924.47;;;6.27;47.53
21182;BME280;10749;46.296;7.524;2023-02-02T01:29:17;95915.03;;;6.24;47.54
21182;BME280;10749;46.296;7.524;2023-02-02T01:31:43;95927.56;;;6.32;47.64
21182;BME280;10749;46.296;7.524;2023-02-02T01:34:08;95923.81;;;6.34;47.64
21182;BME280;10749;46.296;7.524;2023-02-02T01:36:34;95925.22;;;6.38;47.64
21182;BME280;10749;46.296;7.524;2023-02-02T01:39:00;95920.69;;;6.40;47.50
21182;BME280;10749;46.296;7.524;2023-02-02T01:41:25;95921.75;;;6.38;47.19
21182;BME280;10749;46.296;7.524;2023-02-02T01:43:59;95923.69;;;6.36;47.29
21182;BME280;10749;46.296;7.524;2023-02-02T01:46:33;95922.03;;;6.35;47.46
21182;BME280;10749;46.296;7.524;2023-02-02T01:49:07;95920.97;;;6.37;47.60
21182;BME280;10749;46.296;7.524;2023-02-02T01:54:12;95920.97;;;6.37;47.57
21182;BME280;10749;46.296;7.524;2023-02-02T01:56:46;95917.59;;;6.35;47.53
21182;BME280;10749;46.296;7.524;2023-02-02T01:59:15;95913.19;;;6.36;47.62
21182;BME280;10749;46.296;7.524;2023-02-02T02:01:42;95917.34;;;6.38;47.76
21182;BME280;10749;46.296;7.524;2023-02-02T02:04:08;95914.72;;;6.38;47.88
21182;BME280;10749;46.296;7.524;2023-02-02T02:06:33;95918.06;;;6.40;47.98
21182;BME280;10749;46.296;7.524;2023-02-02T02:09:01;95920.44;;;6.43;47.67
21182;BME280;10749;46.296;7.524;2023-02-02T02:11:28;95923.06;;;6.43;47.56
21182;BME280;10749;46.296;7.524;2023-02-02T02:13:56;95915.16;;;6.43;47.73
21182;BME280;10749;46.296;7.524;2023-02-02T02:16:57;95918.53;;;6.45;47.55
21182;BME280;10749;46.296;7.524;2023-02-02T02:22:22;95925.94;;;6.40;47.61
21182;BME280;10749;46.296;7.524;2023-02-02T02:28:46;95917.59;;;6.35;47.76
21182;BME280;10749;46.296;7.524;2023-02-02T02:39:56;95911.19;;;6.28;48.28
21182;BME280;10749;46.296;7.524;2023-02-02T02:42:26;95918.38;;;6.26;48.34
21182;BME280;10749;46.296;7.524;2023-02-02T02:44:54;95912.41;;;6.24;48.30
21182;BME280;10749;46.296;7.524;2023-02-02T02:47:21;95914.53;;;6.30;48.13
21182;BME280;10749;46.296;7.524;2023-02-02T02:49:48;95915.94;;;6.34;48.08
21182;BME280;10749;46.296;7.524;2023-02-02T02:52:14;95902.34;;;6.29;48.26
21182;BME280;10749;46.296;7.524;2023-02-02T02:54:47;95908.31;;;6.31;48.28
21182;BME280;10749;46.296;7.524;2023-02-02T02:57:19;95917.88;;;6.32;48.17
21182;BME280;10749;46.296;7.524;2023-02-02T02:59:59;95921.44;;;6.31;48.12
21182;BME280;10749;46.296;7.524;2023-02-02T03:02:55;95907.94;;;6.36;48.16
21182;BME280;10749;46.296;7.524;2023-02-02T03:05:39;95920.69;;;6.40;48.04
21182;BME280;10749;46.296;7.524;2023-02-02T03:08:26;95920.69;;;6.40;48.31
21182;BME280;10749;46.296;7.524;2023-02-02T03:10:55;95920.34;;;6.34;48.40
21182;BME280;10749;46.296;7.524;2023-02-02T03:13:22;95915.69;;;6.37;48.17
21182;BME280;10749;46.296;7.524;2023-02-02T03:15:47;95920.22;;;6.35;48.65
21182;BME280;10749;46.296;7.524;2023-02-02T03:18:14;95906.81;;;6.38;48.48
21182;BME280;10749;46.296;7.524;2023-02-02T03:20:42;95908.75;;;6.36;48.45
21182;BME280;10749;46.296;7.524;2023-02-02T03:23:08;95904.91;;;6.40;48.18
21182;BME280;10749;46.296;7.524;2023-02-02T03:25:33;95897.66;;;6.33;48.16
21182;BME280;10749;46.296;7.524;2023-02-02T03:27:59;95900.91;;;6.25;48.06
21182;BME280;10749;46.296;7.524;2023-02-02T03:30:24;95905.59;;;6.22;48.20
21182;BME280;10749;46.296;7.524;2023-02-02T03:32:51;95903.50;;;6.16;48.13
21182;BME280;10749;46.296;7.524;2023-02-02T03:35:16;95905.03;;;6.18;48.56
21182;BME280;10749;46.296;7.524;2023-02-02T03:37:42;95901.44;;;6.19;48.29
21182;BME280;10749;46.296;7.524;2023-02-02T03:40:07;95902.84;;;6.23;48.25
21182;BME280;10749;46.296;7.524;2023-02-02T03:42:33;95905.47;;;6.23;48.25
21182;BME280;10749;46.296;7.524;2023-02-02T03:44:58;95907.72;;;6.28;48.11
21182;BME280;10749;46.296;7.524;2023-02-02T03:47:27;95904.16;;;6.29;48.11
21182;BME280;10749;46.296;7.524;2023-02-02T03:49:52;95911.44;;;6.25;48.23
21182;BME280;10749;46.296;7.524;2023-02-02T03:52:18;95909.63;;;6.26;48.02
21182;BME280;10749;46.296;7.524;2023-02-02T03:54:43;95905.94;;;6.28;48.07
21182;BME280;10749;46.296;7.524;2023-02-02T03:57:08;95901.19;;;6.22;48.30
21182;BME280;10749;46.296;7.524;2023-02-02T03:59:33;95891.75;;;6.20;48.24
21182;BME280;10749;46.296;7.524;2023-02-02T04:01:59;95894.78;;;6.15;48.57
21182;BME280;10749;46.296;7.524;2023-02-02T04:04:24;95898.63;;;6.11;48.26
21182;BME280;10749;46.296;7.524;2023-02-02T04:06:49;95903.41;;;6.06;47.92
21182;BME280;10749;46.296;7.524;2023-02-02T04:09:14;95911.03;;;6.09;48.02
21182;BME280;10749;46.296;7.524;2023-02-02T04:11:40;95912.72;;;6.10;48.28
21182;BME280;10749;46.296;7.524;2023-02-02T04:14:05;95912.72;;;6.10;47.99
21182;BME280;10749;46.296;7.524;2023-02-02T04:16:31;95915.50;;;6.09;48.13
21182;BME280;10749;46.296;7.524;2023-02-02T04:18:58;95910.47;;;6.06;48.32
21182;BME280;10749;46.296;7.524;2023-02-02T04:21:24;95905.56;;;6.01;47.90
21182;BME280;10749;46.296;7.524;2023-02-02T04:23:49;95918.41;;;5.94;48.15
21182;BME280;10749;46.296;7.524;2023-02-02T04:26:14;95915.66;;;5.96;47.89
21182;BME280;10749;46.296;7.524;2023-02-02T04:28:39;95917.31;;;5.97;47.97
21182;BME280;10749;46.296;7.524;2023-02-02T04:31:05;95932.84;;;6.00;48.08
21182;BME280;10749;46.296;7.524;2023-02-02T04:33:30;95925.06;;;5.98;48.20
21182;BME280;10749;46.296;7.524;2023-02-02T04:35:55;95920.44;;;5.91;48.04
21182;BME280;10749;46.296;7.524;2023-02-02T04:38:21;95922.56;;;5.86;47.91
21182;BME280;10749;46.296;7.524;2023-02-02T04:40:47;95928.78;;;5.85;48.17
21182;BME280;10749;46.296;7.524;2023-02-02T04:43:12;95930.47;;;5.86;48.01
21182;BME280;10749;46.296;7.524;2023-02-02T04:45:38;95931.41;;;5.85;48.00
21182;BME280;10749;46.296;7.524;2023-02-02T04:48:03;95925.47;;;5.83;48.01
21182;BME280;10749;46.296;7.524;2023-02-02T04:50:29;95939.53;;;5.82;48.07
21182;BME280;10749;46.296;7.524;2023-02-02T04:52:55;95945.28;;;5.76;48.28
21182;BME280;10749;46.296;7.524;2023-02-02T04:55:21;95948.63;;;5.78;48.31
21182;BME280;10749;46.296;7.524;2023-02-02T04:57:47;95955.56;;;5.79;48.18
21182;BME280;10749;46.296;7.524;2023-02-02T05:00:12;95951.72;;;5.83;48.21
21182;BME280;10749;46.296;7.524;2023-02-02T05:02:39;95956.25;;;5.81;48.39
21182;BME280;10749;46.296;7.524;2023-02-02T05:05:07;95954.25;;;5.73;48.10
21182;BME280;10749;46.296;7.524;2023-02-02T05:07:33;95955.72;;;5.66;48.08
21182;BME280;10749;46.296;7.524;2023-02-02T05:09:59;95958.72;;;5.62;48.16
21182;BME280;10749;46.296;7.524;2023-02-02T05:12:24;95962.28;;;5.61;48.07
21182;BME280;10749;46.296;7.524;2023-02-02T05:14:49;95971.72;;;5.52;48.06
21182;BME280;10749;46.296;7.524;2023-02-02T05:17:15;95974.00;;;5.45;48.16
21182;BME280;10749;46.296;7.524;2023-02-02T05:19:40;95976.16;;;5.40;48.32
21182;BME280;10749;46.296;7.524;2023-02-02T05:22:06;95978.31;;;5.35;48.24
21182;BME280;10749;46.296;7.524;2023-02-02T05:24:31;95980.22;;;5.33;48.01
21182;BME280;10749;46.296;7.524;2023-02-02T05:26:56;95978.56;;;5.32;48.13
21182;BME280;10749;46.296;7.524;2023-02-02T05:29:28;95981.88;;;5.34;48.35
21182;BME280;10749;46.296;7.524;2023-02-02T05:31:55;95991.31;;;5.37;48.16
21182;BME280;10749;46.296;7.524;2023-02-02T05:34:20;96004.31;;;5.38;48.32
21182;BME280;10749;46.296;7.524;2023-02-02T05:36:46;96006.81;;;5.40;48.40
21182;BME280;10749;46.296;7.524;2023-02-02T05:39:12;95999.06;;;5.38;48.46
21182;BME280;10749;46.296;7.524;2023-02-02T05:41:37;96009.81;;;5.35;48.59
21182;BME280;10749;46.296;7.524;2023-02-02T05:44:03;96010.16;;;5.31;48.42
21182;BME280;10749;46.296;7.524;2023-02-02T05:46:29;96008.03;;;5.25;48.27
21182;BME280;10749;46.296;7.524;2023-02-02T05:48:54;96000.75;;;5.17;48.52
21182;BME280;10749;46.296;7.524;2023-02-02T05:51:24;96003.94;;;5.09;48.33
21182;BME280;10749;46.296;7.524;2023-02-02T05:53:51;96006.13;;;5.04;48.24
21182;BME280;10749;46.296;7.524;2023-02-02T05:56:16;96008.75;;;5.04;47.99
21182;BME280;10749;46.296;7.524;2023-02-02T05:58:42;96011.47;;;5.03;47.95
21182;BME280;10749;46.296;7.524;2023-02-02T06:01:08;96002.50;;;5.05;48.22
21182;BME280;10749;46.296;7.524;2023-02-02T06:03:34;96014.34;;;5.11;48.30
21182;BME280;10749;46.296;7.524;2023-02-02T06:05:59;96016.00;;;5.12;48.60
21182;BME280;10749;46.296;7.524;2023-02-02T06:08:25;96008.97;;;5.13;48.60
21182;BME280;10749;46.296;7.524;2023-02-02T06:10:50;96009.81;;;5.13;48.58
21182;BME280;10749;46.296;7.524;2023-02-02T06:13:15;96015.06;;;5.24;48.42
21182;BME280;10749;46.296;7.524;2023-02-02T06:15:41;96015.56;;;5.29;48.67
21182;BME280;10749;46.296;7.524;2023-02-02T06:18:07;96016.97;;;5.33;48.63
21182;BME280;10749;46.296;7.524;2023-02-02T06:20:32;96015.06;;;5.35;48.63
21182;BME280;10749;46.296;7.524;2023-02-02T06:22:58;96011.94;;;5.30;48.81
21182;BME280;10749;46.296;7.524;2023-02-02T06:25:23;96027.09;;;5.27;48.63
21182;BME280;10749;46.296;7.524;2023-02-02T06:27:49;96028.44;;;5.21;48.56
21182;BME280;10749;46.296;7.524;2023-02-02T06:30:15;96033.69;;;5.21;48.53
21182;BME280;10749;46.296;7.524;2023-02-02T06:32:40;96028.09;;;5.26;48.56
21182;BME280;10749;46.296;7.524;2023-02-02T06:35:06;96032.00;;;5.20;48.67
21182;BME280;10749;46.296;7.524;2023-02-02T06:37:31;96034.75;;;5.19;48.82
21182;BME280;10749;46.296;7.524;2023-02-02T06:39:58;96037.50;;;5.17;48.67
21182;BME280;10749;46.296;7.524;2023-02-02T06:42:23;96027.22;;;5.14;48.82
21182;BME280;10749;46.296;7.524;2023-02-02T06:44:49;96029.13;;;5.12;48.66
21182;BME280;10749;46.296;7.524;2023-02-02T06:47:14;96026.72;;;4.98;48.78
21182;BME280;10749;46.296;7.524;2023-02-02T06:49:39;96033.53;;;5.00;48.70
21182;BME280;10749;46.296;7.524;2023-02-02T06:52:06;96043.91;;;5.02;48.34
21182;BME280;10749;46.296;7.524;2023-02-02T06:54:31;96028.88;;;5.04;48.66
21182;BME280;10749;46.296;7.524;2023-02-02T06:56:56;96032.47;;;5.03;48.44
21182;BME280;10749;46.296;7.524;2023-02-02T06:59:21;96026.38;;;5.02;48.69
21182;BME280;10749;46.296;7.524;2023-02-02T07:01:50;96023.66;;;5.04;48.80
21182;BME280;10749;46.296;7.524;2023-02-02T07:04:16;96024.84;;;5.00;48.89
21182;BME280;10749;46.296;7.524;2023-02-02T07:06:42;96031.28;;;5.07;48.95
21182;BME280;10749;46.296;7.524;2023-02-02T07:09:07;96026.03;;;5.07;48.76
21182;BME280;10749;46.296;7.524;2023-02-02T07:11:33;96026.63;;;5.10;48.88
21182;BME280;10749;46.296;7.524;2023-02-02T07:14:00;96033.53;;;5.11;49.11
21182;BME280;10749;46.296;7.524;2023-02-02T07:16:25;96041.06;;;5.16;49.17
21182;BME280;10749;46.296;7.524;2023-02-02T07:18:50;96035.22;;;5.13;49.25
21182;BME280;10749;46.296;7.524;2023-02-02T07:21:19;96034.50;;;5.10;49.29
21182;BME280;10749;46.296;7.524;2023-02-02T07:23:45;96036.06;;;5.13;49.19
21182;BME280;10749;46.296;7.524;2023-02-02T07:26:11;96043.31;;;5.09;49.46
21182;BME280;10749;46.296;7.524;2023-02-02T07:28:38;96035.56;;;5.08;49.08
21182;BME280;10749;46.296;7.524;2023-02-02T07:31:18;96039.03;;;5.08;49.07
21182;BME280;10749;46.296;7.524;2023-02-02T07:33:45;96039.75;;;5.10;49.03
21182;BME280;10749;46.296;7.524;2023-02-02T07:36:12;96035.81;;;5.05;48.84
21182;BME280;10749;46.296;7.524;2023-02-02T07:38:40;96037.00;;;5.01;48.98
21182;BME280;10749;46.296;7.524;2023-02-02T07:41:05;96042.47;;;4.98;48.99
21182;BME280;10749;46.296;7.524;2023-02-02T07:43:31;96048.56;;;4.98;48.94
21182;BME280;10749;46.296;7.524;2023-02-02T07:46:03;96043.44;;;4.97;49.01
21182;BME280;10749;46.296;7.524;2023-02-02T07:48:31;96035.56;;;4.97;48.93
21182;BME280;10749;46.296;7.524;2023-02-02T07:51:00;96040.81;;;4.97;49.10
21182;BME280;10749;46.296;7.524;2023-02-02T07:53:26;96035.19;;;4.90;48.94
21182;BME280;10749;46.296;7.524;2023-02-02T07:55:52;96037.69;;;4.92;49.36
21182;BME280;10749;46.296;7.524;2023-02-02T07:58:17;96040.06;;;4.84;49.00
21182;BME280;10749;46.296;7.524;2023-02-02T08:00:42;96043.88;;;4.80;48.99
21182;BME280;10749;46.296;7.524;2023-02-02T08:03:11;96043.63;;;4.83;48.98
21182;BME280;10749;46.296;7.524;2023-02-02T08:05:36;96044.22;;;4.86;49.13
21182;BME280;10749;46.296;7.524;2023-02-02T08:08:02;96050.09;;;4.90;49.26
21182;BME280;10749;46.296;7.524;2023-02-02T08:10:27;96043.78;;;4.92;49.29
21182;BME280;10749;46.296;7.524;2023-02-02T08:12:52;96048.78;;;4.95;49.33
21182;BME280;10749;46.296;7.524;2023-02-02T08:15:18;96050.81;;;5.03;49.12
21182;BME280;10749;46.296;7.524;2023-02-02T08:17:44;96053.44;;;5.03;49.18
21182;BME280;10749;46.296;7.524;2023-02-02T08:20:11;96059.19;;;5.08;49.05
21182;BME280;10749;46.296;7.524;2023-02-02T08:22:37;96055.84;;;5.06;49.21
21182;BME280;10749;46.296;7.524;2023-02-02T08:25:04;96062.75;;;5.07;49.33
21182;BME280;10749;46.296;7.524;2023-02-02T08:27:29;96057.50;;;5.07;49.61
21182;BME280;10749;46.296;7.524;2023-02-02T08:29:54;96063.97;;;5.14;49.56
21182;BME280;10749;46.296;7.524;2023-02-02T08:32:20;96068.06;;;5.29;49.63
21182;BME280;10749;46.296;7.524;2023-02-02T08:34:47;96063.88;;;5.38;49.57
21182;BME280;10749;46.296;7.524;2023-02-02T08:37:12;96053.03;;;5.42;49.77
21182;BME280;10749;46.296;7.524;2023-02-02T08:39:38;96062.78;;;5.51;49.69
21182;BME280;10749;46.296;7.524;2023-02-02T08:42:03;96064.47;;;5.52;49.46
21182;BME280;10749;46.296;7.524;2023-02-02T08:44:28;96052.06;;;5.54;49.42
21182;BME280;10749;46.296;7.524;2023-02-02T08:46:54;96045.84;;;5.67;49.53
21182;BME280;10749;46.296;7.524;2023-02-02T08:49:19;96035.94;;;5.70;49.38
21182;BME280;10749;46.296;7.524;2023-02-02T08:51:44;96040.00;;;5.74;49.75
21182;BME280;10749;46.296;7.524;2023-02-02T08:54:10;96052.41;;;5.83;49.69
21182;BME280;10749;46.296;7.524;2023-02-02T08:56:35;96051.56;;;5.83;49.53
21182;BME280;10749;46.296;7.524;2023-02-02T08:59:00;96058.50;;;5.95;49.53
21182;BME280;10749;46.296;7.524;2023-02-02T09:01:31;96062.56;;;5.99;49.38
21182;BME280;10749;46.296;7.524;2023-02-02T09:06:27;96060.63;;;6.01;49.26
21182;BME280;10749;46.296;7.524;2023-02-02T09:08:52;96059.91;;;6.10;49.39
21182;BME280;10749;46.296;7.524;2023-02-02T09:11:19;96061.91;;;6.18;49.51
21182;BME280;10749;46.296;7.524;2023-02-02T09:13:46;96058.06;;;6.22;49.36
21182;BME280;10749;46.296;7.524;2023-02-02T09:16:14;96060.84;;;6.20;49.45
21182;BME280;10749;46.296;7.524;2023-02-02T09:18:40;96057.13;;;6.23;49.29
21182;BME280;10749;46.296;7.524;2023-02-02T09:21:08;96058.91;;;6.22;49.07
21182;BME280;10749;46.296;7.524;2023-02-02T09:23:36;96048.91;;;6.16;49.26
21182;BME280;10749;46.296;7.524;2023-02-02T09:26:11;96058.44;;;6.28;49.30
21182;BME280;10749;46.296;7.524;2023-02-02T09:28:38;96043.56;;;6.38;49.51
21182;BME280;10749;46.296;7.524;2023-02-02T09:31:04;96049.28;;;6.43;49.53
21182;BME280;10749;46.296;7.524;2023-02-02T09:33:29;96043.97;;;6.55;49.51
21182;BME280;10749;46.296;7.524;2023-02-02T09:35:55;96050.16;;;6.65;49.50
21182;BME280;10749;46.296;7.524;2023-02-02T09:38:20;96038.31;;;6.70;49.49
21182;BME280;10749;46.296;7.524;2023-02-02T09:40:45;96043.19;;;6.75;49.59
21182;BME280;10749;46.296;7.524;2023-02-02T09:46:04;96038.63;;;6.77;49.48
21182;BME280;10749;46.296;7.524;2023-02-02T09:48:51;96027.59;;;6.83;49.14
21182;BME280;10749;46.296;7.524;2023-02-02T09:51:22;96043.44;;;6.92;49.27
21182;BME280;10749;46.296;7.524;2023-02-02T09:53:53;96033.75;;;6.93;49.10
21182;BME280;10749;46.296;7.524;2023-02-02T09:56:26;96036.72;;;7.00;49.27
21182;BME280;10749;46.296;7.524;2023-02-02T09:58:54;96027.44;;;7.05;49.15
21182;BME280;10749;46.296;7.524;2023-02-02T10:01:33;96027.81;;;7.21;48.91
21182;BME280;10749;46.296;7.524;2023-02-02T10:06:46;96029.16;;;7.36;49.04
21182;BME280;10749;46.296;7.524;2023-02-02T10:09:39;96028.22;;;7.47;49.18
21182;BME280;10749;46.296;7.524;2023-02-02T10:12:20;96025.03;;;7.43;48.86
21182;BME280;10749;46.296;7.524;2023-02-02T10:17:36;96026.44;;;7.48;49.03
21182;BME280;10749;46.296;7.524;2023-02-02T10:22:39;96011.06;;;7.53;48.97
21182;BME280;10749;46.296;7.524;2023-02-02T10:25:11;96013.25;;;7.48;48.55
21182;BME280;10749;46.296;7.524;2023-02-02T10:27:38;96011.13;;;7.72;49.04
21182;BME280;10749;46.296;7.524;2023-02-02T10:30:14;96000.63;;;7.81;48.55
21182;BME280;10749;46.296;7.524;2023-02-02T10:33:01;96002.47;;;7.91;49.02
21182;BME280;10749;46.296;7.524;2023-02-02T10:35:46;96017.00;;;7.85;48.71
21182;BME280;10749;46.296;7.524;2023-02-02T10:38:37;96019.22;;;7.89;48.33
21182;BME280;10749;46.296;7.524;2023-02-02T10:41:25;96020.38;;;8.06;48.50
21182;BME280;10749;46.296;7.524;2023-02-02T10:49:25;96020.75;;;8.61;48.53
21182;BME280;10749;46.296;7.524;2023-02-02T10:54:51;96022.25;;;8.92;48.34
21182;BME280;10749;46.296;7.524;2023-02-02T10:57:25;96015.75;;;8.77;47.85
21182;BME280;10749;46.296;7.524;2023-02-02T11:00:01;96012.78;;;8.99;48.40
21182;BME280;10749;46.296;7.524;2023-02-02T11:02:30;96020.69;;;8.99;48.39
21182;BME280;10749;46.296;7.524;2023-02-02T11:04:55;96016.53;;;9.06;48.18
21182;BME280;10749;46.296;7.524;2023-02-02T11:07:38;96007.84;;;9.23;48.24
21182;BME280;10749;46.296;7.524;2023-02-02T11:10:04;96010.28;;;9.54;48.12
21182;BME280;10749;46.296;7.524;2023-02-02T11:12:33;96012.69;;;9.74;48.06
21182;BME280;10749;46.296;7.524;2023-02-02T11:17:26;96013.41;;;9.94;47.86
21182;BME280;10749;46.296;7.524;2023-02-02T11:19:52;96014.78;;;9.98;47.80
21182;BME280;10749;46.296;7.524;2023-02-02T11:22:32;96015.56;;;10.08;47.38
21182;BME280;10749;46.296;7.524;2023-02-02T11:25:01;96006.66;;;10.09;47.38
21182;BME280;10749;46.296;7.524;2023-02-02T11:30:01;96014.50;;;10.29;46.86
21182;BME280;10749;46.296;7.524;2023-02-02T11:32:35;95995.69;;;10.32;46.78
21182;BME280;10749;46.296;7.524;2023-02-02T11:37:37;96003.09;;;10.46;46.11
21182;BME280;10749;46.296;7.524;2023-02-02T11:42:57;95997.78;;;10.81;46.47
21182;BME280;10749;46.296;7.524;2023-02-02T11:48:04;95980.03;;;11.17;46.31
21182;BME280;10749;46.296;7.524;2023-02-02T11:50:31;95979.34;;;11.41;46.22
21182;BME280;10749;46.296;7.524;2023-02-02T11:52:56;95971.16;;;11.26;46.50
21182;BME280;10749;46.296;7.524;2023-02-02T11:55:27;95970.94;;;11.20;46.00
21182;BME280;10749;46.296;7.524;2023-02-02T12:00:51;95961.66;;;11.75;45.96
21182;BME280;10749;46.296;7.524;2023-02-02T12:05:55;95961.56;;;11.59;45.13
21182;BME280;10749;46.296;7.524;2023-02-02T12:08:21;95952.22;;;11.47;44.94
21182;BME280;10749;46.296;7.524;2023-02-02T12:10:53;95951.16;;;11.40;44.55
21182;BME280;10749;46.296;7.524;2023-02-02T12:16:23;95948.41;;;11.49;44.29
21182;BME280;10749;46.296;7.524;2023-02-02T12:19:15;95944.28;;;11.55;44.29
21182;BME280;10749;46.296;7.524;2023-02-02T12:24:55;95946.03;;;11.72;43.80
21182;BME280;10749;46.296;7.524;2023-02-02T12:27:35;95941.94;;;11.86;43.87
21182;BME280;10749;46.296;7.524;2023-02-02T12:30:09;95928.72;;;11.94;43.54
21182;BME280;10749;46.296;7.524;2023-02-02T12:32:44;95929.22;;;11.97;43.52
21182;BME280;10749;46.296;7.524;2023-02-02T12:38:10;95926.56;;;12.06;42.97
21182;BME280;10749;46.296;7.524;2023-02-02T12:43:38;95934.91;;;12.27;43.03
21182;BME280;10749;46.296;7.524;2023-02-02T12:46:18;95937.25;;;12.30;42.73
21182;BME280;10749;46.296;7.524;2023-02-02T12:51:36;95945.91;;;12.80;42.92
21182;BME280;10749;46.296;7.524;2023-02-02T12:54:38;95943.59;;;12.85;42.75
21182;BME280;10749;46.296;7.524;2023-02-02T12:57:29;95942.25;;;12.89;42.45
21182;BME280;10749;46.296;7.524;2023-02-02T13:07:54;95948.56;;;13.29;42.21
21182;BME280;10749;46.296;7.524;2023-02-02T13:10:36;95944.84;;;13.46;42.28
21182;BME280;10749;46.296;7.524;2023-02-02T13:13:10;95950.81;;;13.56;42.16
21182;BME280;10749;46.296;7.524;2023-02-02T13:15:40;95948.78;;;13.58;41.82
21182;BME280;10749;46.296;7.524;2023-02-02T13:18:17;95934.81;;;13.64;41.53
21182;BME280;10749;46.296;7.524;2023-02-02T13:20:47;95937.13;;;13.67;41.60
21182;BME280;10749;46.296;7.524;2023-02-02T13:23:19;95934.78;;;13.72;41.26
21182;BME280;10749;46.296;7.524;2023-02-02T13:26:15;95939.06;;;13.81;41.35
21182;BME280;10749;46.296;7.524;2023-02-02T13:29:21;95938.97;;;13.59;40.98
21182;BME280;10749;46.296;7.524;2023-02-02T13:32:18;95931.78;;;13.75;40.61
21182;BME280;10749;46.296;7.524;2023-02-02T13:37:43;95932.78;;;13.74;40.52
21182;BME280;10749;46.296;7.524;2023-02-02T13:40:26;95935.91;;;13.86;40.38
21182;BME280;10749;46.296;7.524;2023-02-02T13:54:26;95943.22;;;14.46;40.08
21182;BME280;10749;46.296;7.524;2023-02-02T14:02:46;95960.03;;;15.14;42.45
21182;BME280;10749;46.296;7.524;2023-02-02T14:05:27;95970.44;;;16.98;47.67
21182;BME280;10749;46.296;7.524;2023-02-02T14:08:00;95970.16;;;19.19;48.22
21182;BME280;10749;46.296;7.524;2023-02-02T14:10:43;95969.69;;;20.01;45.50
21182;BME280;10749;46.296;7.524;2023-02-02T14:15:57;95956.41;;;15.74;36.78
21182;BME280;10749;46.296;7.524;2023-02-02T14:26:44;95959.25;;;12.06;37.84
21182;BME280;10749;46.296;7.524;2023-02-02T14:34:44;95975.38;;;11.45;38.15
21182;BME280;10749;46.296;7.524;2023-02-02T14:40:02;95970.50;;;11.32;38.27
21182;BME280;10749;46.296;7.524;2023-02-02T14:43:13;95963.13;;;11.18;38.29
21182;BME280;10749;46.296;7.524;2023-02-02T14:48:31;95975.50;;;11.09;38.69
21182;BME280;10749;46.296;7.524;2023-02-02T14:50:59;95977.88;;;10.95;38.74
21182;BME280;10749;46.296;7.524;2023-02-02T14:53:28;95986.50;;;10.97;38.95
21182;BME280;10749;46.296;7.524;2023-02-02T15:01:23;95984.88;;;10.78;38.96
21182;BME280;10749;46.296;7.524;2023-02-02T15:06:32;95994.16;;;10.82;39.25
21182;BME280;10749;46.296;7.524;2023-02-02T15:23:01;96012.25;;;10.34;39.84
21182;BME280;10749;46.296;7.524;2023-02-02T15:25:42;96008.53;;;10.27;39.78
21182;BME280;10749;46.296;7.524;2023-02-02T15:31:06;96008.91;;;10.32;39.85
21182;BME280;10749;46.296;7.524;2023-02-02T15:33:43;96011.03;;;10.28;40.05
21182;BME280;10749;46.296;7.524;2023-02-02T15:36:13;96003.94;;;10.29;39.93
21182;BME280;10749;46.296;7.524;2023-02-02T15:38:42;96012.84;;;10.28;40.12
21182;BME280;10749;46.296;7.524;2023-02-02T15:41:46;96009.84;;;10.23;40.23
21182;BME280;10749;46.296;7.524;2023-02-02T15:44:27;96008.28;;;10.20;39.90
21182;BME280;10749;46.296;7.524;2023-02-02T15:46:54;96003.84;;;10.11;40.14
21182;BME280;10749;46.296;7.524;2023-02-02T15:49:27;96011.97;;;10.09;40.26
21182;BME280;10749;46.296;7.524;2023-02-02T15:51:55;96020.16;;;10.06;40.08